createdAt,value
2019-05-26T00:01:45.831Z,5.27
2019-05-26T00:06:39.676Z,5.65
2019-05-26T00:11:31.969Z,5.35
2019-05-26T00:16:24.624Z,5.75
2019-05-26T00:21:17.052Z,6.05
2019-05-26T00:26:09.688Z,5.30
2019-05-26T00:31:02.156Z,6.12
2019-05-26T00:35:54.856Z,5.90
2019-05-26T00:40:47.692Z,5.72
2019-05-26T00:45:39.749Z,5.97
2019-05-26T00:50:32.321Z,5.62
2019-05-26T00:55:25.801Z,5.58
2019-05-26T01:00:20.930Z,5.65
2019-05-26T01:05:13.491Z,7.12
2019-05-26T01:10:09.118Z,6.15
2019-05-26T01:15:01.968Z,7.05
2019-05-26T01:19:54.309Z,6.95
2019-05-26T01:24:46.958Z,6.67
2019-05-26T01:29:39.462Z,5.97
2019-05-26T01:34:32.255Z,6.55
2019-05-26T01:39:24.970Z,6.17
2019-05-26T01:44:17.286Z,6.28
2019-05-26T01:49:10.086Z,6.10
2019-05-26T01:54:02.326Z,6.65
2019-05-26T01:58:55.587Z,6.70
2019-05-26T02:03:47.848Z,7.00
2019-05-26T02:08:40.655Z,7.33
2019-05-26T02:13:32.992Z,7.75
2019-05-26T02:18:25.406Z,7.35
2019-05-26T02:23:17.812Z,7.70
2019-05-26T02:28:09.941Z,7.45
2019-05-26T02:33:02.149Z,6.72
2019-05-26T02:37:54.627Z,5.90
2019-05-26T02:42:47.533Z,6.08
2019-05-26T02:47:39.982Z,6.08
2019-05-26T02:52:31.992Z,6.25
2019-05-26T02:57:24.390Z,6.75
2019-05-26T03:02:16.853Z,6.50
2019-05-26T03:07:09.485Z,6.42
2019-05-26T03:12:03.103Z,6.40
2019-05-26T03:16:58.357Z,6.85
2019-05-26T03:21:53.633Z,6.73
2019-05-26T03:26:45.773Z,6.50
2019-05-26T03:31:37.890Z,6.90
2019-05-26T03:36:30.454Z,7.37
2019-05-26T03:41:23.252Z,6.70
2019-05-26T03:46:19.242Z,5.85
2019-05-26T03:51:11.783Z,6.30
2019-05-26T03:56:04.019Z,5.90
2019-05-26T04:00:56.519Z,6.50
2019-05-26T04:05:48.874Z,6.50
2019-05-26T04:10:41.431Z,6.27
2019-05-26T04:15:33.696Z,6.67
2019-05-26T04:20:26.247Z,6.70
2019-05-26T04:25:18.829Z,7.73
2019-05-26T04:30:11.166Z,7.00
2019-05-26T04:35:04.903Z,7.15
2019-05-26T04:39:57.261Z,6.43
2019-05-26T04:44:49.433Z,6.73
2019-05-26T04:49:41.867Z,6.40
2019-05-26T04:54:34.349Z,6.67
2019-05-26T04:59:26.982Z,6.72
2019-05-26T05:04:19.410Z,7.00
2019-05-26T05:09:12.048Z,7.03
2019-05-26T05:14:04.947Z,7.37
2019-05-26T05:18:56.995Z,7.58
2019-05-26T05:23:49.231Z,8.98
2019-05-26T05:28:41.604Z,8.98
2019-05-26T05:33:35.188Z,8.68
2019-05-26T05:38:27.535Z,10.78
2019-05-26T05:43:19.886Z,13.38
2019-05-26T05:48:12.405Z,15.15
2019-05-26T05:53:04.783Z,16.17
2019-05-26T05:57:57.244Z,15.85
2019-05-26T06:02:49.854Z,15.83
2019-05-26T06:07:42.278Z,16.25
2019-05-26T06:12:34.663Z,16.80
2019-05-26T06:17:27.014Z,16.75
2019-05-26T06:22:21.509Z,16.55
2019-05-26T06:27:13.764Z,17.23
2019-05-26T06:32:06.131Z,18.07
2019-05-26T06:36:58.747Z,22.20
2019-05-26T06:41:51.441Z,20.68
2019-05-26T06:46:44.025Z,24.18
2019-05-26T06:51:36.307Z,28.55
2019-05-26T06:56:28.437Z,26.02
2019-05-26T07:01:21.364Z,29.53
2019-05-26T07:06:13.606Z,27.62
2019-05-26T07:11:07.215Z,25.25
2019-05-26T07:15:59.841Z,28.10
2019-05-26T07:20:52.395Z,27.85
2019-05-26T07:25:45.131Z,28.55
2019-05-26T07:30:37.575Z,28.50
2019-05-26T07:35:32.952Z,28.27
2019-05-26T07:40:25.791Z,26.25
2019-05-26T07:45:19.254Z,27.07
2019-05-26T07:50:20.722Z,25.85
2019-05-26T07:55:13.400Z,20.23
2019-05-26T08:00:09.571Z,19.75
2019-05-26T08:05:01.967Z,17.00
2019-05-26T08:09:54.826Z,16.82
2019-05-26T08:14:47.042Z,19.20
2019-05-26T08:19:39.283Z,18.00
2019-05-26T08:24:32.064Z,14.05
2019-05-26T08:29:24.256Z,13.93
2019-05-26T08:34:16.670Z,16.00
2019-05-26T08:39:11.198Z,16.93
2019-05-26T08:44:04.012Z,15.98
2019-05-26T08:48:56.288Z,14.00
2019-05-26T08:53:48.341Z,13.45
2019-05-26T08:58:40.608Z,11.18
2019-05-26T09:03:32.946Z,11.12
2019-05-26T09:08:25.516Z,9.78
2019-05-26T09:13:17.884Z,10.43
2019-05-26T09:18:10.789Z,10.00
2019-05-26T09:23:03.524Z,8.90
2019-05-26T09:27:56.112Z,8.45
2019-05-26T09:32:48.728Z,7.87
2019-05-26T09:37:42.321Z,8.30
2019-05-26T09:42:34.979Z,7.12
2019-05-26T09:47:27.633Z,6.30
2019-05-26T09:52:20.027Z,6.05
2019-05-26T09:57:12.819Z,5.28
2019-05-26T10:02:06.114Z,4.33
2019-05-26T10:06:58.603Z,4.85
2019-05-26T10:11:51.109Z,3.77
2019-05-26T10:16:43.482Z,3.83
2019-05-26T10:21:36.110Z,3.87
2019-05-26T10:26:28.457Z,2.85
2019-05-26T10:31:20.495Z,2.80
2019-05-26T10:36:13.304Z,2.83
2019-05-26T10:41:06.527Z,3.37
2019-05-26T10:45:58.742Z,2.90
2019-05-26T10:50:51.429Z,2.75
2019-05-26T10:55:44.350Z,2.40
2019-05-26T11:00:37.004Z,2.47
2019-05-26T11:05:29.390Z,2.22
2019-05-26T11:10:22.150Z,2.20
2019-05-26T11:15:15.150Z,1.40
2019-05-26T11:20:08.385Z,1.70
2019-05-26T11:25:01.131Z,1.70
2019-05-26T11:29:53.873Z,1.70
2019-05-26T11:35:00.619Z,1.47
2019-05-26T11:39:40.082Z,1.62
2019-05-26T11:44:32.486Z,1.50
2019-05-26T11:49:26.640Z,1.65
2019-05-26T11:54:19.400Z,1.60
2019-05-26T11:59:11.602Z,3.02
2019-05-26T12:04:04.333Z,1.80
2019-05-26T12:08:56.881Z,1.77
2019-05-26T12:13:49.165Z,1.62
2019-05-26T12:18:41.619Z,1.67
2019-05-26T12:23:35.094Z,1.50
2019-05-26T12:28:27.640Z,1.80
2019-05-26T12:33:20.062Z,1.67
2019-05-26T12:38:12.845Z,1.50
2019-05-26T12:43:05.336Z,1.40
2019-05-26T12:47:57.967Z,1.40
2019-05-26T12:52:50.240Z,1.30
2019-05-26T12:57:42.877Z,1.30
2019-05-26T13:02:35.250Z,1.45
2019-05-26T13:07:28.176Z,1.45
2019-05-26T13:12:21.123Z,1.60
2019-05-26T13:17:13.557Z,1.95
2019-05-26T13:22:06.074Z,1.90
2019-05-26T13:26:58.314Z,2.02
2019-05-26T13:31:50.949Z,1.98
2019-05-26T13:36:43.569Z,1.80
2019-05-26T13:41:36.361Z,5.83
2019-05-26T13:46:28.925Z,12.98
2019-05-26T13:51:21.193Z,3.10
2019-05-26T13:56:13.446Z,1.90
2019-05-26T14:01:06.175Z,2.10
2019-05-26T14:05:59.019Z,2.12
2019-05-26T14:10:51.595Z,2.30
2019-05-26T14:15:44.503Z,1.95
2019-05-26T14:20:43.572Z,2.45
2019-05-26T14:25:37.733Z,2.80
2019-05-26T14:30:31.303Z,2.00
2019-05-26T14:35:23.595Z,1.97
2019-05-26T14:40:16.718Z,1.90
2019-05-26T14:45:09.402Z,1.70
2019-05-26T14:50:02.744Z,1.82
2019-05-26T14:54:54.826Z,1.80
2019-05-26T14:59:47.077Z,1.80
2019-05-26T15:04:39.619Z,1.57
2019-05-26T15:09:32.008Z,1.57
2019-05-26T15:14:24.401Z,1.40
2019-05-26T15:19:17.943Z,2.00
2019-05-26T15:24:10.526Z,1.67
2019-05-26T15:29:03.174Z,1.52
2019-05-26T15:33:55.427Z,1.65
2019-05-26T15:38:47.983Z,1.65
2019-05-26T15:43:40.257Z,1.80
2019-05-26T15:48:32.535Z,1.90
2019-05-26T15:53:25.246Z,2.00
2019-05-26T15:58:17.879Z,1.77
2019-05-26T16:03:10.030Z,1.60
2019-05-26T16:08:02.254Z,1.50
2019-05-26T16:12:54.812Z,1.22
2019-05-26T16:17:47.254Z,1.60
2019-05-26T16:22:39.641Z,1.50
2019-05-26T16:27:32.302Z,1.32
2019-05-26T16:32:24.684Z,1.35
2019-05-26T16:37:17.061Z,1.60
2019-05-26T16:42:09.369Z,1.50
2019-05-26T16:47:02.265Z,1.30
2019-05-26T16:51:54.512Z,1.52
2019-05-26T16:56:47.048Z,1.42
2019-05-26T17:01:39.195Z,1.50
2019-05-26T17:06:32.297Z,1.45
2019-05-26T17:11:24.734Z,1.40
2019-05-26T17:16:17.777Z,1.67
2019-05-26T17:21:10.381Z,1.60
2019-05-26T17:26:02.665Z,1.70
2019-05-26T17:30:54.847Z,1.42
2019-05-26T17:35:47.274Z,1.35
2019-05-26T17:40:39.488Z,1.37
2019-05-26T17:45:31.895Z,1.70
2019-05-26T17:50:24.653Z,1.60
2019-05-26T17:55:17.166Z,1.70
2019-05-26T18:00:11.940Z,1.98
2019-05-26T18:05:05.490Z,1.60
2019-05-26T18:09:57.938Z,1.75
2019-05-26T18:14:50.542Z,1.82
2019-05-26T18:19:42.970Z,2.10
2019-05-26T18:24:35.544Z,1.80
2019-05-26T18:29:28.088Z,2.10
2019-05-26T18:34:20.770Z,1.60
2019-05-26T18:39:13.173Z,1.72
2019-05-26T18:44:05.724Z,2.70
2019-05-26T18:48:58.042Z,2.12
2019-05-26T18:53:50.829Z,2.17
2019-05-26T18:58:43.150Z,2.15
2019-05-26T19:03:35.948Z,2.27
2019-05-26T19:08:28.693Z,1.90
2019-05-26T19:13:20.942Z,2.17
2019-05-26T19:18:19.970Z,2.87
2019-05-26T19:23:07.993Z,2.00
2019-05-26T19:28:00.755Z,2.00
2019-05-26T19:32:53.367Z,2.77
2019-05-26T19:37:45.666Z,2.05
2019-05-26T19:42:37.721Z,2.90
2019-05-26T19:47:30.355Z,3.08
2019-05-26T19:52:24.246Z,4.50
2019-05-26T19:57:16.607Z,3.72
2019-05-26T20:02:18.426Z,3.10
2019-05-26T20:07:02.989Z,2.60
2019-05-26T20:11:55.754Z,2.30
2019-05-26T20:16:47.852Z,2.60
2019-05-26T20:21:40.196Z,4.40
2019-05-26T20:26:33.117Z,4.22
2019-05-26T20:31:25.369Z,4.37
2019-05-26T20:36:17.886Z,5.33
2019-05-26T20:41:10.194Z,3.98
2019-05-26T20:46:02.680Z,4.87
2019-05-26T20:50:54.908Z,3.95
2019-05-26T20:55:47.374Z,3.95
2019-05-26T21:00:39.944Z,3.20
2019-05-26T21:05:32.780Z,3.15
2019-05-26T21:10:25.269Z,3.77
2019-05-26T21:15:18.121Z,3.35
2019-05-26T21:20:11.377Z,2.87
2019-05-26T21:25:09.119Z,2.87
2019-05-26T21:30:02.265Z,2.60
2019-05-26T21:34:54.919Z,3.22
2019-05-26T21:39:47.243Z,2.67
2019-05-26T21:44:39.787Z,2.60
2019-05-26T21:49:31.837Z,2.60
2019-05-26T21:54:24.334Z,2.87
2019-05-26T21:59:18.933Z,2.87
2019-05-26T22:04:11.690Z,3.33
2019-05-26T22:09:05.631Z,3.67
2019-05-26T22:13:58.622Z,2.70
2019-05-26T22:18:52.618Z,3.17
2019-05-26T22:23:46.360Z,3.67
2019-05-26T22:28:39.782Z,3.37
2019-05-26T22:33:32.479Z,4.12
2019-05-26T22:38:24.863Z,4.05
2019-05-26T22:43:16.878Z,3.83
2019-05-26T22:48:09.161Z,4.10
2019-05-26T22:53:01.592Z,3.70
2019-05-26T22:57:54.386Z,3.83
2019-05-26T23:02:47.117Z,3.77
2019-05-26T23:07:39.141Z,4.37
2019-05-26T23:12:31.446Z,4.37
2019-05-26T23:17:23.777Z,4.12
2019-05-26T23:22:16.260Z,4.00
2019-05-26T23:27:08.894Z,4.10
2019-05-26T23:32:01.275Z,4.28
2019-05-26T23:36:53.829Z,4.40
2019-05-26T23:41:46.375Z,4.50
2019-05-26T23:46:39.051Z,4.75
2019-05-26T23:51:31.325Z,4.83
2019-05-26T23:56:23.746Z,4.90
